createdAt,value
2018-02-19T00:00:30.714Z,77.32
2018-02-19T00:01:33.183Z,77.73
2018-02-19T00:02:35.669Z,77.82
2018-02-19T00:03:38.161Z,78.02
2018-02-19T00:04:40.673Z,77.49
2018-02-19T00:05:43.172Z,77.38
2018-02-19T00:06:45.640Z,77.50
2018-02-19T00:07:48.123Z,77.31
2018-02-19T00:08:50.607Z,77.60
2018-02-19T00:09:53.140Z,77.39
2018-02-19T00:10:55.654Z,77.38
2018-02-19T00:11:58.141Z,77.99
2018-02-19T00:13:00.616Z,78.11
2018-02-19T00:14:03.108Z,78.36
2018-02-19T00:15:05.609Z,78.29
2018-02-19T00:16:08.110Z,78.69
2018-02-19T00:17:10.584Z,78.38
2018-02-19T00:18:13.059Z,78.17
2018-02-19T00:19:15.567Z,78.22
2018-02-19T00:20:18.043Z,78.34
2018-02-19T00:21:20.557Z,78.12
2018-02-19T00:22:23.049Z,78.22
2018-02-19T00:23:25.522Z,78.08
2018-02-19T00:24:28.020Z,78.22
2018-02-19T00:25:30.545Z,78.27
2018-02-19T00:26:33.007Z,78.59
2018-02-19T00:27:35.508Z,78.69
2018-02-19T00:28:37.991Z,78.09
2018-02-19T00:29:40.478Z,78.28
2018-02-19T00:30:42.976Z,78.90
2018-02-19T00:31:45.488Z,79.12
2018-02-19T00:32:47.976Z,78.92
2018-02-19T00:33:50.465Z,78.86
2018-02-19T00:34:52.957Z,78.47
2018-02-19T00:35:55.437Z,78.43
2018-02-19T00:36:58.008Z,78.51
2018-02-19T00:38:00.486Z,78.98
2018-02-19T00:39:02.970Z,78.97
2018-02-19T00:40:05.477Z,78.89
2018-02-19T00:41:07.963Z,78.98
2018-02-19T00:42:10.487Z,78.59
2018-02-19T00:43:12.971Z,78.40
2018-02-19T00:44:15.443Z,78.69
2018-02-19T00:45:17.916Z,78.98
2018-02-19T00:46:20.415Z,79.09
2018-02-19T00:47:22.916Z,79.21
2018-02-19T00:48:25.411Z,79.83
2018-02-19T00:49:27.913Z,79.46
2018-02-19T00:50:30.400Z,79.56
2018-02-19T00:51:32.926Z,79.45
2018-02-19T00:52:35.452Z,79.14
2018-02-19T00:53:37.954Z,78.85
2018-02-19T00:54:40.432Z,78.82
2018-02-19T00:55:42.912Z,78.90
2018-02-19T00:56:45.387Z,79.14
2018-02-19T00:57:47.888Z,78.83
2018-02-19T00:58:50.364Z,79.20
2018-02-19T00:59:52.866Z,79.62
2018-02-19T01:00:55.360Z,79.55
2018-02-19T01:01:57.840Z,79.86
2018-02-19T01:03:00.347Z,79.75
2018-02-19T01:04:02.815Z,79.48
2018-02-19T01:05:05.302Z,79.50
2018-02-19T01:06:07.783Z,79.92
2018-02-19T01:07:10.267Z,79.83
2018-02-19T01:08:12.755Z,80.09
2018-02-19T01:09:15.239Z,80.07
2018-02-19T01:10:17.725Z,79.89
2018-02-19T01:11:20.201Z,80.09
2018-02-19T01:12:22.689Z,80.37
2018-02-19T01:13:25.210Z,80.32
2018-02-19T01:14:28.502Z,80.50
2018-02-19T01:15:30.989Z,80.28
2018-02-19T01:16:33.550Z,80.29
2018-02-19T01:17:36.051Z,80.39
2018-02-19T01:18:38.570Z,80.58
2018-02-19T01:19:41.046Z,80.56
2018-02-19T01:20:43.527Z,81.15
2018-02-19T01:21:46.032Z,80.96
2018-02-19T01:22:48.512Z,81.39
2018-02-19T01:23:51.025Z,81.58
2018-02-19T01:24:53.525Z,81.71
2018-02-19T01:25:56.023Z,81.72
2018-02-19T01:26:58.501Z,81.39
2018-02-19T01:28:00.990Z,81.33
2018-02-19T01:29:03.506Z,80.97
2018-02-19T01:30:06.032Z,80.75
2018-02-19T01:31:08.523Z,80.95
2018-02-19T01:32:11.025Z,80.94
2018-02-19T01:33:13.516Z,81.04
2018-02-19T01:34:16.028Z,80.78
2018-02-19T01:35:18.503Z,80.96
2018-02-19T01:36:21.000Z,81.08
2018-02-19T01:37:23.485Z,81.22
2018-02-19T01:38:25.977Z,81.57
2018-02-19T01:39:28.485Z,81.82
2018-02-19T01:40:30.974Z,81.82
2018-02-19T01:41:33.473Z,81.80
2018-02-19T01:42:35.963Z,81.37
2018-02-19T01:43:38.446Z,81.43
2018-02-19T01:44:40.950Z,81.32
2018-02-19T01:45:43.427Z,81.23
2018-02-19T01:46:45.907Z,81.33
2018-02-19T01:47:48.400Z,81.50
2018-02-19T01:48:50.898Z,81.64
2018-02-19T01:50:05.130Z,81.73
2018-02-19T01:51:07.620Z,81.42
2018-02-19T01:52:10.119Z,81.59
2018-02-19T01:53:12.613Z,81.84
2018-02-19T01:54:15.090Z,81.64
2018-02-19T01:55:17.610Z,81.82
2018-02-19T01:56:20.119Z,81.80
2018-02-19T01:57:22.615Z,82.04
2018-02-19T01:58:25.116Z,81.76
2018-02-19T01:59:27.631Z,81.71
2018-02-19T02:00:30.136Z,82.03
2018-02-19T02:01:32.640Z,81.78
2018-02-19T02:02:35.133Z,81.86
2018-02-19T02:03:37.625Z,81.55
2018-02-19T02:04:40.118Z,81.46
2018-02-19T02:05:42.624Z,81.17
2018-02-19T02:06:45.118Z,81.67
2018-02-19T02:07:47.596Z,81.84
2018-02-19T02:08:50.079Z,81.87
2018-02-19T02:09:52.565Z,82.04
2018-02-19T02:10:55.081Z,81.83
2018-02-19T02:11:57.552Z,81.71
2018-02-19T02:13:00.045Z,81.52
2018-02-19T02:14:02.539Z,81.37
2018-02-19T02:15:05.046Z,81.63
2018-02-19T02:16:07.546Z,81.68
2018-02-19T02:17:10.047Z,81.85
2018-02-19T02:18:12.542Z,81.83
2018-02-19T02:19:15.032Z,82.01
2018-02-19T02:20:17.525Z,81.78
2018-02-19T02:21:20.027Z,81.50
2018-02-19T02:22:22.504Z,81.69
2018-02-19T02:23:25.024Z,81.27
2018-02-19T02:24:27.529Z,81.73
2018-02-19T02:25:30.026Z,82.07
2018-02-19T02:26:32.543Z,81.83
2018-02-19T02:27:35.021Z,81.83
2018-02-19T02:28:37.517Z,82.04
2018-02-19T02:29:40.011Z,82.15
2018-02-19T02:30:42.502Z,82.04
2018-02-19T02:31:45.013Z,81.88
2018-02-19T02:32:47.499Z,82.18
2018-02-19T02:33:49.980Z,82.41
2018-02-19T02:34:52.460Z,82.21
2018-02-19T02:35:54.954Z,82.31
2018-02-19T02:36:58.077Z,82.18
2018-02-19T02:38:00.581Z,82.46
2018-02-19T02:39:03.065Z,82.25
2018-02-19T02:40:05.619Z,82.47
2018-02-19T02:41:08.133Z,82.32
2018-02-19T02:42:10.635Z,82.24
2018-02-19T02:43:13.115Z,82.22
2018-02-19T02:44:15.604Z,82.45
2018-02-19T02:45:18.102Z,82.19
2018-02-19T02:46:20.580Z,82.32
2018-02-19T02:47:23.077Z,82.44
2018-02-19T02:48:25.578Z,82.35
2018-02-19T02:49:28.064Z,82.45
2018-02-19T02:50:30.556Z,82.54
2018-02-19T02:51:33.047Z,82.61
2018-02-19T02:52:35.562Z,82.49
2018-02-19T02:53:38.042Z,82.53
2018-02-19T02:54:40.555Z,82.19
2018-02-19T02:55:43.040Z,82.05
2018-02-19T02:56:45.513Z,82.09
2018-02-19T02:57:48.046Z,82.26
2018-02-19T02:58:50.543Z,82.38
2018-02-19T02:59:53.030Z,82.41
2018-02-19T03:00:55.506Z,82.68
2018-02-19T03:01:57.989Z,82.50
2018-02-19T03:03:00.514Z,82.30
2018-02-19T03:04:02.998Z,82.33
2018-02-19T03:05:05.497Z,82.78
2018-02-19T03:06:07.984Z,82.76
2018-02-19T03:07:10.484Z,82.29
2018-02-19T03:08:13.012Z,82.12
2018-02-19T03:09:15.483Z,82.21
2018-02-19T03:10:17.980Z,82.36
2018-02-19T03:11:20.473Z,82.48
2018-02-19T03:12:22.962Z,82.48
2018-02-19T03:13:25.485Z,81.80
2018-02-19T03:14:27.959Z,81.93
2018-02-19T03:15:30.465Z,81.81
2018-02-19T03:16:32.943Z,81.87
2018-02-19T03:17:35.432Z,81.72
2018-02-19T03:18:37.957Z,81.80
2018-02-19T03:19:40.516Z,81.76
2018-02-19T03:20:43.035Z,81.87
2018-02-19T03:21:45.511Z,81.62
2018-02-19T03:22:48.035Z,81.58
2018-02-19T03:23:50.556Z,81.57
2018-02-19T03:24:53.049Z,81.45
2018-02-19T03:25:55.539Z,81.64
2018-02-19T03:26:58.045Z,81.62
2018-02-19T03:28:00.571Z,81.41
2018-02-19T03:29:03.075Z,81.07
2018-02-19T03:30:05.578Z,81.31
2018-02-19T03:31:08.076Z,81.24
2018-02-19T03:32:10.571Z,81.60
2018-02-19T03:33:13.063Z,81.24
2018-02-19T03:34:15.577Z,81.22
2018-02-19T03:35:18.078Z,81.32
2018-02-19T03:36:20.573Z,80.59
2018-02-19T03:37:23.058Z,80.28
2018-02-19T03:38:25.594Z,79.96
2018-02-19T03:39:28.087Z,79.86
2018-02-19T03:40:30.572Z,79.87
2018-02-19T03:41:33.057Z,79.52
2018-02-19T03:42:35.563Z,79.86
2018-02-19T03:43:38.053Z,79.69
2018-02-19T03:44:40.590Z,79.76
2018-02-19T03:45:43.072Z,79.67
2018-02-19T03:46:45.570Z,79.39
2018-02-19T03:47:48.061Z,79.58
2018-02-19T03:48:50.539Z,79.49
2018-02-19T03:49:53.072Z,80.11
2018-02-19T03:50:55.559Z,80.08
2018-02-19T03:51:58.056Z,79.87
2018-02-19T03:53:00.543Z,79.97
2018-02-19T03:54:03.018Z,79.95
2018-02-19T03:55:05.515Z,79.66
2018-02-19T03:56:08.034Z,78.93
2018-02-19T03:57:10.539Z,78.65
2018-02-19T03:58:13.043Z,79.42
2018-02-19T03:59:15.525Z,79.77
2018-02-19T04:00:18.051Z,79.46
2018-02-19T04:01:20.540Z,78.96
2018-02-19T04:02:23.030Z,78.69
2018-02-19T04:03:25.519Z,78.52
2018-02-19T04:04:28.027Z,78.33
2018-02-19T04:05:30.523Z,78.74
2018-02-19T04:06:33.025Z,78.82
2018-02-19T04:07:35.585Z,78.81
2018-02-19T04:08:38.090Z,78.66
2018-02-19T04:09:40.586Z,78.72
2018-02-19T04:10:43.096Z,79.01
2018-02-19T04:11:45.591Z,79.77
2018-02-19T04:12:48.067Z,79.75
2018-02-19T04:13:50.540Z,79.41
2018-02-19T04:14:53.021Z,79.63
2018-02-19T04:15:55.518Z,79.60
2018-02-19T04:16:57.999Z,79.76
2018-02-19T04:18:00.485Z,79.80
2018-02-19T04:19:02.980Z,79.91
2018-02-19T04:20:05.478Z,80.21
2018-02-19T04:21:08.001Z,80.07
2018-02-19T04:22:10.497Z,79.98
2018-02-19T04:23:12.998Z,79.52
2018-02-19T04:24:15.471Z,78.97
2018-02-19T04:25:17.993Z,79.00
2018-02-19T04:26:20.505Z,79.29
2018-02-19T04:27:22.991Z,79.50
2018-02-19T04:28:25.472Z,79.52
2018-02-19T04:29:27.943Z,79.03
2018-02-19T04:30:30.446Z,79.50
2018-02-19T04:31:32.979Z,79.39
2018-02-19T04:32:35.466Z,78.93
2018-02-19T04:33:37.931Z,79.10
2018-02-19T04:34:40.420Z,78.64
2018-02-19T04:35:42.935Z,78.49
2018-02-19T04:36:45.480Z,78.52
2018-02-19T04:37:47.970Z,78.96
2018-02-19T04:38:50.492Z,78.86
2018-02-19T04:39:52.967Z,79.05
2018-02-19T04:40:55.442Z,79.06
2018-02-19T04:41:57.968Z,78.82
2018-02-19T04:43:02.831Z,78.83
2018-02-19T04:44:05.307Z,79.12
2018-02-19T04:45:10.078Z,79.28
2018-02-19T04:46:13.489Z,79.36
2018-02-19T04:47:15.993Z,79.55
2018-02-19T04:48:18.494Z,79.87
2018-02-19T04:49:20.992Z,79.56
2018-02-19T04:50:23.480Z,79.68
2018-02-19T04:51:25.955Z,79.60
2018-02-19T04:52:28.474Z,79.43
2018-02-19T04:53:30.979Z,79.97
2018-02-19T04:54:33.466Z,79.46
2018-02-19T04:55:35.966Z,79.53
2018-02-19T04:56:38.477Z,80.20
2018-02-19T04:57:40.981Z,79.89
2018-02-19T04:58:43.485Z,79.49
2018-02-19T04:59:45.973Z,79.66
2018-02-19T05:00:48.448Z,79.89
2018-02-19T05:01:50.916Z,79.63
2018-02-19T05:02:53.421Z,79.68
2018-02-19T05:03:55.909Z,79.54
2018-02-19T05:04:58.414Z,79.75
2018-02-19T05:06:00.901Z,79.60
2018-02-19T05:07:03.397Z,79.67
2018-02-19T05:08:05.904Z,79.52
2018-02-19T05:09:08.408Z,79.28
2018-02-19T05:10:10.914Z,79.21
2018-02-19T05:11:13.402Z,79.45
2018-02-19T05:12:15.885Z,79.08
2018-02-19T05:13:18.387Z,79.19
2018-02-19T05:14:20.867Z,79.38
2018-02-19T05:15:23.348Z,79.47
2018-02-19T05:16:25.835Z,79.28
2018-02-19T05:17:28.325Z,79.44
2018-02-19T05:18:30.830Z,79.48
2018-02-19T05:19:33.307Z,79.16
2018-02-19T05:20:35.798Z,78.93
2018-02-19T05:21:38.290Z,79.03
2018-02-19T05:22:40.769Z,78.88
2018-02-19T05:23:43.282Z,78.96
2018-02-19T05:24:45.769Z,79.02
2018-02-19T05:25:48.363Z,78.85
2018-02-19T05:26:50.833Z,78.78
2018-02-19T05:27:53.345Z,78.25
2018-02-19T05:28:55.864Z,78.27
2018-02-19T05:29:58.360Z,78.18
2018-02-19T05:31:00.830Z,78.33
2018-02-19T05:32:03.337Z,78.35
2018-02-19T05:33:05.821Z,78.06
2018-02-19T05:34:08.342Z,77.74
2018-02-19T05:35:10.853Z,78.19
2018-02-19T05:36:13.354Z,78.09
2018-02-19T05:37:15.850Z,78.01
2018-02-19T05:38:18.324Z,78.10
2018-02-19T05:39:20.847Z,77.99
2018-02-19T05:40:23.349Z,78.12
2018-02-19T05:41:25.841Z,77.76
2018-02-19T05:42:28.329Z,77.51
2018-02-19T05:43:30.862Z,77.59
2018-02-19T05:44:33.364Z,77.59
2018-02-19T05:45:35.839Z,77.42
2018-02-19T05:46:38.327Z,77.33
2018-02-19T05:47:40.832Z,77.57
2018-02-19T05:48:43.322Z,77.32
2018-02-19T05:49:45.832Z,77.42
2018-02-19T05:50:48.334Z,77.66
2018-02-19T05:51:50.835Z,77.96
2018-02-19T05:52:53.315Z,77.70
2018-02-19T05:53:55.850Z,77.78
2018-02-19T05:54:58.362Z,77.35
2018-02-19T05:56:00.854Z,77.45
2018-02-19T05:57:03.332Z,77.58
2018-02-19T05:58:05.812Z,77.62
2018-02-19T05:59:08.307Z,77.93
2018-02-19T06:00:10.817Z,77.72
2018-02-19T06:01:13.295Z,77.67
2018-02-19T06:02:15.802Z,77.76
2018-02-19T06:03:18.311Z,77.36
2018-02-19T06:04:20.828Z,77.20
2018-02-19T06:05:23.355Z,77.34
2018-02-19T06:06:25.851Z,77.66
2018-02-19T06:07:28.337Z,77.68
2018-02-19T06:08:30.820Z,77.60
2018-02-19T06:09:33.308Z,76.93
2018-02-19T06:10:35.816Z,77.39
2018-02-19T06:11:38.301Z,77.15
2018-02-19T06:12:40.823Z,77.10
2018-02-19T06:13:43.314Z,76.93
2018-02-19T06:14:45.787Z,77.05
2018-02-19T06:15:48.314Z,77.12
2018-02-19T06:16:50.856Z,76.93
2018-02-19T06:17:53.348Z,76.58
2018-02-19T06:18:55.831Z,76.69
2018-02-19T06:19:58.303Z,76.84
2018-02-19T06:21:00.804Z,77.21
2018-02-19T06:22:03.287Z,77.08
2018-02-19T06:23:05.765Z,77.00
2018-02-19T06:24:08.260Z,76.97
2018-02-19T06:25:10.749Z,76.95
2018-02-19T06:26:13.284Z,76.64
2018-02-19T06:27:15.778Z,76.88
2018-02-19T06:28:18.244Z,76.89
2018-02-19T06:29:20.759Z,77.13
2018-02-19T06:30:23.252Z,76.86
2018-02-19T06:31:25.752Z,76.90
2018-02-19T06:32:28.245Z,76.90
2018-02-19T06:33:30.739Z,76.84
2018-02-19T06:34:33.219Z,77.11
2018-02-19T06:35:35.721Z,77.09
2018-02-19T06:36:38.223Z,77.33
2018-02-19T06:37:40.717Z,77.13
2018-02-19T06:38:43.205Z,77.45
2018-02-19T06:39:45.709Z,77.53
2018-02-19T06:40:48.222Z,77.67
2018-02-19T06:41:50.728Z,77.59
2018-02-19T06:42:53.292Z,77.37
2018-02-19T06:43:55.777Z,77.36
2018-02-19T06:44:58.396Z,76.99
2018-02-19T06:46:00.892Z,76.70
2018-02-19T06:47:03.385Z,76.64
2018-02-19T06:48:05.945Z,76.77
2018-02-19T06:49:08.547Z,76.72
2018-02-19T06:50:11.023Z,76.46
2018-02-19T06:51:13.565Z,76.43
2018-02-19T06:52:16.089Z,76.47
2018-02-19T06:53:18.571Z,76.32
2018-02-19T06:54:21.115Z,76.57
2018-02-19T06:55:23.582Z,76.99
2018-02-19T06:56:26.078Z,77.35
2018-02-19T06:57:28.603Z,77.03
2018-02-19T06:58:31.098Z,76.85
2018-02-19T06:59:33.616Z,76.73
2018-02-19T07:00:36.110Z,76.45
2018-02-19T07:01:38.613Z,76.32
2018-02-19T07:02:41.182Z,75.96
2018-02-19T07:03:43.663Z,75.82
2018-02-19T07:04:46.156Z,75.69
2018-02-19T07:05:48.631Z,75.69
2018-02-19T07:06:51.103Z,75.79
2018-02-19T07:07:53.600Z,75.74
2018-02-19T07:08:56.154Z,75.77
2018-02-19T07:09:58.631Z,75.62
2018-02-19T07:11:01.133Z,75.81
2018-02-19T07:12:03.628Z,75.92
2018-02-19T07:13:06.155Z,75.99
2018-02-19T07:14:08.724Z,75.56
2018-02-19T07:15:11.234Z,75.38
2018-02-19T07:16:13.712Z,75.76
2018-02-19T07:17:16.205Z,75.79
2018-02-19T07:18:18.698Z,75.59
2018-02-19T07:19:21.176Z,75.33
2018-02-19T07:20:23.662Z,74.86
2018-02-19T07:21:26.156Z,74.83
2018-02-19T07:22:28.641Z,74.77
2018-02-19T07:23:31.130Z,74.82
2018-02-19T07:24:33.605Z,74.90
2018-02-19T07:25:36.082Z,75.14
2018-02-19T07:26:38.573Z,74.63
2018-02-19T07:27:41.077Z,74.57
2018-02-19T07:28:43.563Z,74.37
2018-02-19T07:29:46.057Z,74.55
2018-02-19T07:30:48.595Z,74.93
2018-02-19T07:31:51.079Z,75.05
2018-02-19T07:32:53.573Z,75.10
2018-02-19T07:33:56.078Z,74.57
2018-02-19T07:34:58.569Z,74.75
2018-02-19T07:36:01.040Z,74.25
2018-02-19T07:37:03.516Z,74.26
2018-02-19T07:38:06.006Z,74.19
2018-02-19T07:39:08.501Z,74.03
2018-02-19T07:40:10.986Z,73.66
2018-02-19T07:41:13.623Z,73.52
2018-02-19T07:42:16.149Z,73.73
2018-02-19T07:43:18.630Z,73.51
2018-02-19T07:44:21.145Z,73.72
2018-02-19T07:45:23.617Z,73.43
2018-02-19T07:46:26.106Z,73.71
2018-02-19T07:47:28.590Z,73.54
2018-02-19T07:48:31.059Z,73.44
2018-02-19T07:49:33.549Z,73.04
2018-02-19T07:50:36.038Z,72.46
2018-02-19T07:51:38.545Z,72.08
2018-02-19T07:52:41.037Z,71.93
2018-02-19T07:53:43.558Z,72.19
2018-02-19T07:54:46.047Z,71.99
2018-02-19T07:55:48.530Z,71.91
2018-02-19T07:56:51.010Z,71.96
2018-02-19T07:57:53.487Z,71.75
2018-02-19T07:58:55.951Z,71.98
2018-02-19T07:59:58.434Z,72.01
2018-02-19T08:01:00.923Z,71.97
2018-02-19T08:02:03.395Z,71.50
2018-02-19T08:03:05.864Z,74.22
2018-02-19T08:04:08.350Z,78.28
2018-02-19T08:05:10.840Z,71.34
2018-02-19T08:06:13.315Z,70.62
2018-02-19T08:07:15.802Z,70.40
2018-02-19T08:08:18.297Z,70.48
2018-02-19T08:09:20.769Z,70.25
2018-02-19T08:10:23.252Z,70.08
2018-02-19T08:11:25.809Z,70.12
2018-02-19T08:12:28.371Z,73.90
2018-02-19T08:13:30.804Z,69.33
2018-02-19T08:14:33.289Z,69.29
2018-02-19T08:15:35.774Z,69.67
2018-02-19T08:16:38.270Z,68.54
2018-02-19T08:17:40.741Z,69.15
2018-02-19T08:18:43.237Z,69.93
2018-02-19T08:19:45.726Z,69.57
2018-02-19T08:20:48.217Z,69.64
2018-02-19T08:21:50.679Z,69.46
2018-02-19T08:22:53.163Z,69.70
2018-02-19T08:23:55.687Z,69.44
2018-02-19T08:24:58.127Z,70.00
2018-02-19T08:26:00.617Z,69.99
2018-02-19T08:27:03.117Z,70.62
2018-02-19T08:28:05.601Z,68.61
2018-02-19T08:29:08.075Z,69.21
2018-02-19T08:30:10.555Z,69.72
2018-02-19T08:31:13.073Z,69.66
2018-02-19T08:32:15.586Z,70.08
2018-02-19T08:33:18.063Z,70.92
2018-02-19T08:34:20.555Z,69.08
2018-02-19T08:35:23.027Z,69.41
2018-02-19T08:36:25.518Z,69.91
2018-02-19T08:37:28.009Z,70.30
2018-02-19T08:38:30.492Z,70.49
2018-02-19T08:39:32.963Z,70.64
2018-02-19T08:40:35.435Z,70.65
2018-02-19T08:41:37.937Z,70.35
2018-02-19T08:42:40.421Z,70.68
2018-02-19T08:43:42.921Z,70.47
2018-02-19T08:44:45.392Z,70.28
2018-02-19T08:45:47.890Z,70.02
2018-02-19T08:46:50.371Z,70.32
2018-02-19T08:47:52.840Z,69.75
2018-02-19T08:48:55.325Z,70.05
2018-02-19T08:49:57.810Z,69.79
2018-02-19T08:51:00.303Z,69.50
2018-02-19T08:52:02.782Z,69.52
2018-02-19T08:53:05.270Z,69.88
2018-02-19T08:54:07.876Z,69.52
2018-02-19T08:55:10.365Z,68.81
2018-02-19T08:56:12.851Z,67.71
2018-02-19T08:57:15.315Z,67.75
2018-02-19T08:58:17.797Z,67.71
2018-02-19T08:59:20.288Z,66.76
2018-02-19T09:00:22.765Z,64.91
2018-02-19T09:01:25.264Z,63.99
2018-02-19T09:02:27.754Z,64.48
2018-02-19T09:03:30.231Z,64.64
2018-02-19T09:04:32.723Z,64.12
2018-02-19T09:05:35.207Z,64.99
2018-02-19T09:06:37.711Z,64.86
2018-02-19T09:07:40.180Z,65.45
2018-02-19T09:08:42.661Z,66.30
2018-02-19T09:09:45.139Z,66.20
2018-02-19T09:10:47.630Z,66.97
2018-02-19T09:11:50.132Z,67.38
2018-02-19T09:12:52.626Z,67.90
2018-02-19T09:13:55.096Z,67.52
2018-02-19T09:14:57.589Z,67.63
2018-02-19T09:16:00.070Z,67.30
2018-02-19T09:17:02.599Z,68.00
2018-02-19T09:18:05.078Z,66.65
2018-02-19T09:19:07.577Z,66.13
2018-02-19T09:20:10.048Z,66.87
2018-02-19T09:21:12.515Z,67.01
2018-02-19T09:22:15.053Z,66.84
2018-02-19T09:23:17.535Z,67.24
2018-02-19T09:24:20.012Z,66.80
2018-02-19T09:25:22.479Z,67.69
2018-02-19T09:26:24.960Z,67.37
2018-02-19T09:27:27.482Z,68.27
2018-02-19T09:28:29.955Z,68.48
2018-02-19T09:29:32.445Z,69.03
2018-02-19T09:30:34.988Z,68.40
2018-02-19T09:31:37.470Z,68.77
2018-02-19T09:32:39.998Z,69.25
2018-02-19T09:33:42.478Z,69.05
2018-02-19T09:34:44.945Z,68.99
2018-02-19T09:35:47.419Z,68.67
2018-02-19T09:36:50.033Z,68.06
2018-02-19T09:37:52.557Z,68.62
2018-02-19T09:38:55.028Z,67.83
2018-02-19T09:39:57.495Z,67.95
2018-02-19T09:40:59.977Z,67.59
2018-02-19T09:42:02.462Z,67.13
2018-02-19T09:43:04.949Z,66.65
2018-02-19T09:44:07.428Z,66.71
2018-02-19T09:45:09.896Z,67.33
2018-02-19T09:46:12.374Z,66.91
2018-02-19T09:47:14.843Z,66.42
2018-02-19T09:48:17.347Z,66.59
2018-02-19T09:49:19.837Z,66.07
2018-02-19T09:50:22.307Z,65.57
2018-02-19T09:51:24.780Z,65.94
2018-02-19T09:52:27.334Z,65.09
2018-02-19T09:53:29.846Z,64.76
2018-02-19T09:54:32.318Z,64.38
2018-02-19T09:55:34.791Z,64.42
2018-02-19T09:56:37.385Z,65.18
2018-02-19T09:57:39.893Z,64.82
2018-02-19T09:58:42.451Z,64.96
2018-02-19T09:59:44.934Z,64.69
2018-02-19T10:00:47.427Z,65.63
2018-02-19T10:01:49.895Z,64.74
2018-02-19T10:02:52.362Z,63.20
2018-02-19T10:03:54.873Z,61.57
2018-02-19T10:04:57.343Z,61.40
2018-02-19T10:05:59.816Z,59.48
2018-02-19T10:07:02.283Z,60.94
2018-02-19T10:08:04.756Z,60.86
2018-02-19T10:09:07.283Z,61.42
2018-02-19T10:10:09.772Z,61.18
2018-02-19T10:11:12.360Z,61.32
2018-02-19T10:12:14.845Z,60.62
2018-02-19T10:13:17.332Z,61.58
2018-02-19T10:14:19.938Z,62.44
2018-02-19T10:15:22.782Z,62.49
2018-02-19T10:16:25.261Z,62.36
2018-02-19T10:17:27.763Z,62.49
2018-02-19T10:18:30.245Z,61.79
2018-02-19T10:19:32.750Z,61.76
2018-02-19T10:20:35.230Z,61.99
2018-02-19T10:21:37.742Z,61.97
2018-02-19T10:22:40.211Z,62.15
2018-02-19T10:23:42.701Z,63.46
2018-02-19T10:24:45.204Z,64.20
2018-02-19T10:25:47.671Z,62.37
2018-02-19T10:26:50.150Z,60.87
2018-02-19T10:27:52.642Z,60.20
2018-02-19T10:28:55.138Z,60.59
2018-02-19T10:29:57.639Z,60.49
2018-02-19T10:31:00.129Z,60.56
2018-02-19T10:32:02.599Z,59.66
2018-02-19T10:33:05.085Z,60.63
2018-02-19T10:34:07.627Z,60.54
2018-02-19T10:35:10.133Z,61.17
2018-02-19T10:36:12.604Z,61.65
2018-02-19T10:37:15.083Z,61.02
2018-02-19T10:38:17.566Z,59.95
2018-02-19T10:39:20.036Z,60.38
2018-02-19T10:40:22.539Z,60.81
2018-02-19T10:41:25.011Z,59.40
2018-02-19T10:42:27.519Z,58.01
2018-02-19T10:43:29.988Z,58.63
2018-02-19T10:44:32.483Z,57.58
2018-02-19T10:45:34.980Z,57.71
2018-02-19T10:46:37.569Z,58.01
2018-02-19T10:47:40.043Z,58.23
2018-02-19T10:48:42.538Z,57.56
2018-02-19T10:49:45.034Z,57.99
2018-02-19T10:50:47.542Z,57.63
2018-02-19T10:51:50.034Z,58.41
2018-02-19T10:52:52.527Z,58.36
2018-02-19T10:53:55.025Z,57.25
2018-02-19T10:54:57.553Z,57.19
2018-02-19T10:56:00.790Z,56.97
2018-02-19T10:57:03.280Z,58.13
2018-02-19T10:58:05.770Z,59.08
2018-02-19T10:59:08.242Z,58.06
2018-02-19T11:00:10.716Z,57.00
2018-02-19T11:01:13.219Z,57.80
2018-02-19T11:02:15.707Z,57.99
2018-02-19T11:03:18.185Z,56.77
2018-02-19T11:04:20.686Z,55.44
2018-02-19T11:05:23.169Z,54.53
2018-02-19T11:06:25.674Z,54.09
2018-02-19T11:07:28.174Z,53.62
2018-02-19T11:08:30.635Z,53.96
2018-02-19T11:09:33.915Z,51.55
2018-02-19T11:10:36.387Z,50.18
2018-02-19T11:11:38.894Z,48.89
2018-02-19T11:12:41.374Z,49.91
2018-02-19T11:13:43.865Z,50.13
2018-02-19T11:14:46.336Z,49.07
2018-02-19T11:15:48.864Z,48.89
2018-02-19T11:16:51.373Z,49.35
2018-02-19T11:17:53.858Z,47.53
2018-02-19T11:18:56.361Z,47.04
2018-02-19T11:19:58.840Z,45.31
2018-02-19T11:21:01.317Z,45.78
2018-02-19T11:22:03.812Z,45.91
2018-02-19T11:23:06.290Z,45.89
2018-02-19T11:24:08.802Z,46.80
2018-02-19T11:25:11.259Z,48.98
2018-02-19T11:26:13.737Z,50.34
2018-02-19T11:27:16.249Z,50.18
2018-02-19T11:28:18.721Z,51.76
2018-02-19T11:29:21.191Z,52.38
2018-02-19T11:30:23.664Z,51.89
2018-02-19T11:31:26.139Z,51.75
2018-02-19T11:32:28.639Z,51.36
2018-02-19T11:33:31.106Z,53.55
2018-02-19T11:34:33.576Z,52.93
2018-02-19T11:35:36.086Z,52.99
2018-02-19T11:36:38.573Z,53.48
2018-02-19T11:37:41.059Z,53.05
2018-02-19T11:38:43.554Z,51.69
2018-02-19T11:39:46.121Z,50.21
2018-02-19T11:40:48.606Z,50.39
2018-02-19T11:41:51.091Z,50.80
2018-02-19T11:42:53.591Z,51.03
2018-02-19T11:43:56.078Z,52.48
2018-02-19T11:44:58.565Z,52.00
2018-02-19T11:46:01.038Z,51.49
2018-02-19T11:47:03.530Z,51.43
2018-02-19T11:48:06.043Z,52.12
2018-02-19T11:49:08.534Z,51.65
2018-02-19T11:50:11.028Z,52.29
2018-02-19T11:51:13.496Z,51.23
2018-02-19T11:52:15.967Z,51.11
2018-02-19T11:53:18.467Z,50.06
2018-02-19T11:54:20.940Z,50.62
2018-02-19T11:55:23.415Z,50.60
2018-02-19T11:56:25.891Z,51.53
2018-02-19T11:57:28.371Z,52.11
2018-02-19T11:58:30.874Z,51.76
2018-02-19T11:59:33.347Z,52.21
2018-02-19T12:00:35.815Z,51.38
2018-02-19T12:01:38.287Z,51.49
2018-02-19T12:02:40.761Z,49.71
2018-02-19T12:03:43.265Z,50.24
2018-02-19T12:04:45.732Z,50.78
2018-02-19T12:05:48.208Z,50.87
2018-02-19T12:06:50.694Z,50.13
2018-02-19T12:07:53.159Z,50.39
2018-02-19T12:08:55.648Z,51.42
2018-02-19T12:09:58.123Z,50.98
2018-02-19T12:11:00.611Z,50.25
2018-02-19T12:12:03.094Z,50.51
2018-02-19T12:13:05.582Z,50.59
2018-02-19T12:14:08.152Z,51.57
2018-02-19T12:15:10.825Z,52.42
2018-02-19T12:16:13.323Z,52.72
2018-02-19T12:17:15.800Z,52.15
2018-02-19T12:18:18.324Z,52.32
2018-02-19T12:19:20.828Z,51.65
2018-02-19T12:20:23.300Z,49.34
2018-02-19T12:21:25.819Z,49.42
2018-02-19T12:22:28.292Z,48.22
2018-02-19T12:23:30.777Z,48.05
2018-02-19T12:24:33.283Z,46.92
2018-02-19T12:25:35.755Z,46.44
2018-02-19T12:26:38.223Z,44.79
2018-02-19T12:27:40.687Z,44.31
2018-02-19T12:28:43.177Z,43.71
2018-02-19T12:29:45.784Z,43.06
2018-02-19T12:30:48.369Z,43.09
2018-02-19T12:31:50.844Z,41.51
2018-02-19T12:32:53.332Z,43.04
2018-02-19T12:33:55.823Z,42.44
2018-02-19T12:34:58.341Z,43.21
2018-02-19T12:36:00.826Z,44.94
2018-02-19T12:37:03.307Z,44.28
2018-02-19T12:38:05.791Z,44.80
2018-02-19T12:39:08.527Z,43.65
2018-02-19T12:40:11.049Z,42.80
2018-02-19T12:41:13.546Z,41.49
2018-02-19T12:42:16.024Z,41.16
2018-02-19T12:43:18.498Z,39.68
2018-02-19T12:44:20.968Z,39.79
2018-02-19T12:45:23.525Z,39.97
2018-02-19T12:46:26.013Z,40.68
2018-02-19T12:47:28.499Z,40.19
2018-02-19T12:48:30.971Z,39.04
2018-02-19T12:49:33.470Z,39.84
2018-02-19T12:50:35.967Z,38.44
2018-02-19T12:51:38.458Z,38.44
2018-02-19T12:52:40.943Z,38.07
2018-02-19T12:53:43.420Z,35.64
2018-02-19T12:54:45.911Z,35.74
2018-02-19T12:55:48.412Z,32.78
2018-02-19T12:56:50.927Z,32.36
2018-02-19T12:57:53.419Z,33.57
2018-02-19T12:58:55.915Z,35.71
2018-02-19T12:59:58.426Z,33.17
2018-02-19T13:01:00.943Z,33.40
2018-02-19T13:02:03.424Z,31.32
2018-02-19T13:03:05.906Z,30.38
2018-02-19T13:04:08.397Z,28.53
2018-02-19T13:05:10.880Z,27.10
2018-02-19T13:06:13.385Z,26.04
2018-02-19T13:07:15.869Z,25.80
2018-02-19T13:08:18.343Z,26.58
2018-02-19T13:09:20.826Z,26.27
2018-02-19T13:10:23.307Z,25.00
2018-02-19T13:11:25.807Z,27.81
2018-02-19T13:12:28.293Z,30.97
2018-02-19T13:13:30.794Z,31.48
2018-02-19T13:14:33.290Z,30.21
2018-02-19T13:15:35.782Z,29.62
2018-02-19T13:16:38.296Z,32.10
2018-02-19T13:17:40.775Z,31.62
2018-02-19T13:18:43.271Z,32.19
2018-02-19T13:19:45.761Z,34.21
2018-02-19T13:20:48.255Z,33.07
2018-02-19T13:21:50.826Z,33.62
2018-02-19T13:22:53.298Z,33.26
2018-02-19T13:23:55.778Z,31.97
2018-02-19T13:24:58.267Z,32.23